createdAt,value
2022-09-09T00:02:29.476Z,0.70
2022-09-09T00:05:03.402Z,0.63
2022-09-09T00:07:45.097Z,0.95
2022-09-09T00:10:21.272Z,0.70
2022-09-09T00:13:10.715Z,0.70
2022-09-09T00:16:10.204Z,0.80
2022-09-09T00:19:04.898Z,1.07
2022-09-09T00:21:37.930Z,1.00
2022-09-09T00:24:26.713Z,1.05
2022-09-09T00:27:00.842Z,0.80
2022-09-09T00:29:36.578Z,0.93
2022-09-09T00:32:15.928Z,1.13
2022-09-09T00:34:50.904Z,1.00
2022-09-09T00:37:20.427Z,0.98
2022-09-09T00:39:49.016Z,1.00
2022-09-09T00:42:28.088Z,0.85
2022-09-09T00:45:13.483Z,1.30
2022-09-09T00:47:51.249Z,1.10
2022-09-09T00:50:33.791Z,1.50
2022-09-09T00:53:19.832Z,1.00
2022-09-09T00:56:14.861Z,1.17
2022-09-09T00:58:44.404Z,1.20
2022-09-09T01:01:14.008Z,0.90
2022-09-09T01:03:56.321Z,1.30
2022-09-09T01:06:35.966Z,1.08
2022-09-09T01:09:22.087Z,1.00
2022-09-09T01:11:56.632Z,1.00
2022-09-09T01:14:31.722Z,0.90
2022-09-09T01:17:03.512Z,0.90
2022-09-09T01:19:45.710Z,0.90
2022-09-09T01:22:35.743Z,0.88
2022-09-09T01:25:20.429Z,1.13
2022-09-09T01:27:49.556Z,0.90
2022-09-09T01:30:18.697Z,0.98
2022-09-09T01:32:49.133Z,1.00
2022-09-09T01:35:38.011Z,0.95
2022-09-09T01:38:05.402Z,1.10
2022-09-09T01:40:32.829Z,0.90
2022-09-09T01:42:59.931Z,0.82
2022-09-09T01:45:27.031Z,0.98
2022-09-09T01:47:54.681Z,0.90
2022-09-09T01:50:22.234Z,0.83
2022-09-09T01:52:52.005Z,1.00
2022-09-09T01:55:22.878Z,0.80
2022-09-09T01:58:05.891Z,0.90
2022-09-09T02:00:34.946Z,1.38
2022-09-09T02:03:11.614Z,0.90
2022-09-09T02:05:47.439Z,1.10
2022-09-09T02:08:19.799Z,1.33
2022-09-09T02:11:13.033Z,1.00
2022-09-09T02:13:40.872Z,0.95
2022-09-09T02:16:32.214Z,1.07
2022-09-09T02:19:04.081Z,0.95
2022-09-09T02:21:32.593Z,0.98
2022-09-09T02:24:05.554Z,0.98
2022-09-09T02:26:38.599Z,0.80
2022-09-09T02:29:09.432Z,1.10
2022-09-09T02:31:37.834Z,1.13
2022-09-09T02:34:06.639Z,0.93
2022-09-09T02:36:34.782Z,0.90
2022-09-09T02:39:02.321Z,1.10
2022-09-09T02:41:34.721Z,1.30
2022-09-09T02:44:02.353Z,1.58
2022-09-09T02:47:02.401Z,1.30
2022-09-09T02:49:39.168Z,1.00
2022-09-09T02:52:08.574Z,0.90
2022-09-09T02:54:38.803Z,0.83
2022-09-09T02:57:29.188Z,0.90
2022-09-09T02:59:59.268Z,1.00
2022-09-09T03:02:26.528Z,1.00
2022-09-09T03:04:53.649Z,1.30
2022-09-09T03:07:22.454Z,2.90
2022-09-09T03:09:49.918Z,1.55
2022-09-09T03:12:17.346Z,0.98
2022-09-09T03:14:46.411Z,0.90
2022-09-09T03:17:13.426Z,1.00
2022-09-09T03:19:40.854Z,1.30
2022-09-09T03:22:10.763Z,1.00
2022-09-09T03:24:37.814Z,1.10
2022-09-09T03:27:04.918Z,1.10
2022-09-09T03:29:31.929Z,1.45
2022-09-09T03:31:58.978Z,1.30
2022-09-09T03:34:25.970Z,2.15
2022-09-09T03:36:53.005Z,2.10
2022-09-09T03:39:20.009Z,1.85
2022-09-09T03:41:49.267Z,1.30
2022-09-09T03:44:16.264Z,1.90
2022-09-09T03:46:43.293Z,1.30
2022-09-09T03:49:11.317Z,1.63
2022-09-09T03:51:39.305Z,1.33
2022-09-09T03:54:09.084Z,1.70
2022-09-09T03:56:36.457Z,1.50
2022-09-09T03:59:04.397Z,1.58
2022-09-09T04:01:31.543Z,1.50
2022-09-09T04:03:59.167Z,1.70
2022-09-09T04:06:26.935Z,1.90
2022-09-09T04:08:53.891Z,1.80
2022-09-09T04:11:21.008Z,2.25
2022-09-09T04:13:48.085Z,2.00
2022-09-09T04:16:15.699Z,1.92
2022-09-09T04:18:43.481Z,2.63
2022-09-09T04:21:11.527Z,1.60
2022-09-09T04:23:38.804Z,1.50
2022-09-09T04:26:06.545Z,1.55
2022-09-09T04:28:36.491Z,1.20
2022-09-09T04:31:08.735Z,1.38
2022-09-09T04:33:39.884Z,1.60
2022-09-09T04:36:08.051Z,1.40
2022-09-09T04:38:35.198Z,1.80
2022-09-09T04:41:02.464Z,1.40
2022-09-09T04:43:29.721Z,1.67
2022-09-09T04:45:56.869Z,1.37
2022-09-09T04:48:24.506Z,1.42
2022-09-09T04:51:05.799Z,2.50
2022-09-09T04:53:35.002Z,1.83
2022-09-09T04:56:08.678Z,1.70
2022-09-09T04:58:38.357Z,1.63
2022-09-09T05:01:13.569Z,1.50
2022-09-09T05:03:40.560Z,1.42
2022-09-09T05:06:16.770Z,1.60
2022-09-09T05:08:44.797Z,1.60
2022-09-09T05:11:24.353Z,1.40
2022-09-09T05:13:51.427Z,2.10
2022-09-09T05:16:19.316Z,1.63
2022-09-09T05:18:50.508Z,1.70
2022-09-09T05:21:18.865Z,1.95
2022-09-09T05:23:46.892Z,2.13
2022-09-09T05:26:17.665Z,1.65
2022-09-09T05:28:45.218Z,2.00
2022-09-09T05:31:15.061Z,2.20
2022-09-09T05:33:44.353Z,1.92
2022-09-09T05:36:16.487Z,1.50
2022-09-09T05:38:44.085Z,1.80
2022-09-09T05:41:12.336Z,2.05
2022-09-09T05:43:39.966Z,2.05
2022-09-09T05:46:09.226Z,2.10
2022-09-09T05:48:38.574Z,2.23
2022-09-09T05:51:07.888Z,1.95
2022-09-09T05:53:38.394Z,2.00
2022-09-09T05:56:07.811Z,2.08
2022-09-09T05:58:36.372Z,1.75
2022-09-09T06:01:11.560Z,1.80
2022-09-09T06:03:40.401Z,2.25
2022-09-09T06:06:09.465Z,2.00
2022-09-09T06:08:39.354Z,2.10
2022-09-09T06:11:11.676Z,2.33
2022-09-09T06:13:39.870Z,2.00
2022-09-09T06:16:10.293Z,2.15
2022-09-09T06:18:37.384Z,2.00
2022-09-09T06:21:06.251Z,2.00
2022-09-09T06:23:36.044Z,2.28
2022-09-09T06:26:06.514Z,1.70
2022-09-09T06:28:34.630Z,2.38
2022-09-09T06:31:02.562Z,1.50
2022-09-09T06:33:32.988Z,1.60
2022-09-09T06:35:59.983Z,2.33
2022-09-09T06:38:26.957Z,1.40
2022-09-09T06:40:55.996Z,1.67
2022-09-09T06:43:24.076Z,1.50
2022-09-09T06:45:59.053Z,2.05
2022-09-09T06:48:29.324Z,1.70
2022-09-09T06:51:07.059Z,1.77
2022-09-09T06:53:35.068Z,1.77
2022-09-09T06:56:03.649Z,1.20
2022-09-09T06:58:31.090Z,1.55
2022-09-09T07:01:07.903Z,2.03
2022-09-09T07:03:34.935Z,1.17
2022-09-09T07:06:02.109Z,1.10
2022-09-09T07:08:29.295Z,1.70
2022-09-09T07:11:03.088Z,1.38
2022-09-09T07:13:30.101Z,1.67
2022-09-09T07:16:13.903Z,1.20
2022-09-09T07:18:42.825Z,1.50
2022-09-09T07:21:14.686Z,1.13
2022-09-09T07:23:42.586Z,0.85
2022-09-09T07:26:10.789Z,1.08
2022-09-09T07:28:38.531Z,0.77
2022-09-09T07:31:07.002Z,0.95
2022-09-09T07:33:35.525Z,0.68
2022-09-09T07:36:13.018Z,0.82
2022-09-09T07:38:47.593Z,0.70
2022-09-09T07:41:18.152Z,1.13
2022-09-09T07:43:46.655Z,1.00
2022-09-09T07:46:15.171Z,1.40
2022-09-09T07:48:52.966Z,0.60
2022-09-09T07:51:23.645Z,0.95
2022-09-09T07:53:55.726Z,0.70
2022-09-09T07:56:24.426Z,0.98
2022-09-09T07:58:52.943Z,0.85
2022-09-09T08:01:26.318Z,1.02
2022-09-09T08:04:04.927Z,1.25
2022-09-09T08:06:38.252Z,0.77
2022-09-09T08:09:06.231Z,0.90
2022-09-09T08:11:38.669Z,1.40
2022-09-09T08:14:08.645Z,1.27
2022-09-09T08:16:41.309Z,1.73
2022-09-09T08:19:09.095Z,1.20
2022-09-09T08:21:37.814Z,1.67
2022-09-09T08:24:06.222Z,1.25
2022-09-09T08:26:36.422Z,1.02
2022-09-09T08:29:05.561Z,0.93
2022-09-09T08:31:42.504Z,1.40
2022-09-09T08:34:10.587Z,1.50
2022-09-09T08:36:41.459Z,1.13
2022-09-09T08:39:09.695Z,1.23
2022-09-09T08:42:06.190Z,1.60
2022-09-09T08:44:37.230Z,1.00
2022-09-09T08:47:35.644Z,0.82
2022-09-09T08:50:06.133Z,1.20
2022-09-09T08:52:48.629Z,1.67
2022-09-09T08:55:26.093Z,1.45
2022-09-09T08:57:55.848Z,0.87
2022-09-09T09:00:25.368Z,0.90
2022-09-09T09:03:07.294Z,0.90
2022-09-09T09:05:39.042Z,1.10
2022-09-09T09:08:29.639Z,0.75
2022-09-09T09:10:59.075Z,0.90
2022-09-09T09:13:43.909Z,1.05
2022-09-09T09:16:35.412Z,1.17
2022-09-09T09:19:02.625Z,1.90
2022-09-09T09:21:37.913Z,1.05
2022-09-09T09:24:10.672Z,1.20
2022-09-09T09:26:38.490Z,0.93
2022-09-09T09:29:17.829Z,1.17
2022-09-09T09:31:52.048Z,1.00
2022-09-09T09:34:20.302Z,1.00
2022-09-09T09:36:55.870Z,0.80
2022-09-09T09:42:21.602Z,0.93
2022-09-09T09:44:50.808Z,1.00
2022-09-09T09:47:22.415Z,1.17
2022-09-09T09:50:00.554Z,0.70
2022-09-09T09:52:33.155Z,0.55
2022-09-09T09:55:08.255Z,1.13
2022-09-09T09:57:35.536Z,0.68
2022-09-09T10:00:18.816Z,0.93
2022-09-09T10:02:47.068Z,1.07
2022-09-09T10:05:26.313Z,1.10
2022-09-09T10:08:11.549Z,1.15
2022-09-09T10:11:06.190Z,0.70
2022-09-09T10:14:00.919Z,0.50
2022-09-09T10:17:09.379Z,0.67
2022-09-09T10:19:38.329Z,0.47
2022-09-09T10:22:26.788Z,0.45
2022-09-09T10:25:03.397Z,0.60
2022-09-09T10:27:59.749Z,0.50
2022-09-09T10:30:51.533Z,0.50
2022-09-09T10:33:34.610Z,0.50
2022-09-09T10:36:19.233Z,0.80
2022-09-09T10:38:48.487Z,1.00
2022-09-09T10:41:21.610Z,0.50
2022-09-09T10:44:01.852Z,0.80
2022-09-09T10:47:01.769Z,0.60
2022-09-09T10:49:34.378Z,0.52
2022-09-09T10:52:33.983Z,0.80
2022-09-09T10:55:13.793Z,0.65
2022-09-09T10:57:48.642Z,0.70
2022-09-09T11:00:26.478Z,0.65
2022-09-09T11:03:00.221Z,1.85
2022-09-09T11:05:46.010Z,0.70
2022-09-09T11:08:24.400Z,0.60
2022-09-09T11:11:10.556Z,0.70
2022-09-09T11:13:46.150Z,0.63
2022-09-09T11:16:22.069Z,1.50
2022-09-09T11:18:50.233Z,0.55
2022-09-09T11:21:24.282Z,0.60
2022-09-09T11:23:56.919Z,0.60
2022-09-09T11:26:33.143Z,1.10
2022-09-09T11:29:09.317Z,1.75
2022-09-09T11:31:43.309Z,0.70
2022-09-09T11:34:24.498Z,1.00
2022-09-09T11:37:01.217Z,0.60
2022-09-09T11:39:31.262Z,0.52
2022-09-09T11:42:13.650Z,0.75
2022-09-09T11:44:41.408Z,0.70
2022-09-09T11:47:37.883Z,0.70
2022-09-09T11:50:29.057Z,0.90
2022-09-09T11:53:15.095Z,0.70
2022-09-09T11:55:42.156Z,0.90
2022-09-09T11:58:12.277Z,0.85
2022-09-09T12:00:42.889Z,0.90
2022-09-09T12:03:43.860Z,1.00
2022-09-09T12:06:44.507Z,0.80
2022-09-09T12:09:19.215Z,0.90
2022-09-09T12:11:46.271Z,1.00
2022-09-09T12:14:44.346Z,0.60
2022-09-09T12:17:14.282Z,1.20
2022-09-09T12:19:41.686Z,0.77
2022-09-09T12:22:19.996Z,0.88
2022-09-09T12:25:28.563Z,0.77
2022-09-09T12:28:32.796Z,0.65
2022-09-09T12:31:19.109Z,0.60
2022-09-09T12:33:49.094Z,0.63
2022-09-09T12:36:20.638Z,0.70
2022-09-09T12:38:47.889Z,0.63
2022-09-09T12:41:26.704Z,0.70
2022-09-09T12:44:09.869Z,0.83
2022-09-09T12:46:43.139Z,0.50
2022-09-09T12:49:27.931Z,1.13
2022-09-09T12:51:55.550Z,0.63
2022-09-09T12:54:22.536Z,0.60
2022-09-09T12:56:51.755Z,0.40
2022-09-09T12:59:28.174Z,0.60
2022-09-09T13:01:59.422Z,0.80
2022-09-09T13:04:27.036Z,0.60
2022-09-09T13:06:54.104Z,0.60
2022-09-09T13:09:21.300Z,0.50
2022-09-09T13:11:59.273Z,0.45
2022-09-09T13:14:38.220Z,0.60
2022-09-09T13:17:06.676Z,0.82
2022-09-09T13:19:37.137Z,0.68
2022-09-09T13:22:28.555Z,0.57
2022-09-09T13:25:05.083Z,0.90
2022-09-09T13:27:35.370Z,0.60
2022-09-09T13:30:03.066Z,0.70
2022-09-09T13:32:30.422Z,1.23
2022-09-09T13:34:59.988Z,0.93
2022-09-09T13:37:33.938Z,0.98
2022-09-09T13:40:01.360Z,0.75
2022-09-09T13:42:31.194Z,0.93
2022-09-09T13:44:59.169Z,1.05
2022-09-09T13:47:32.878Z,0.70
2022-09-09T13:50:00.157Z,0.80
2022-09-09T13:52:32.607Z,0.70
2022-09-09T13:55:00.422Z,1.00
2022-09-09T13:57:28.154Z,0.60
2022-09-09T14:00:06.123Z,1.00
2022-09-09T14:02:34.941Z,0.82
2022-09-09T14:05:02.327Z,0.60
2022-09-09T14:07:30.054Z,0.60
2022-09-09T14:09:57.393Z,0.70
2022-09-09T14:12:25.110Z,0.60
2022-09-09T14:14:52.969Z,0.82
2022-09-09T14:17:20.098Z,0.65
2022-09-09T14:19:47.283Z,0.77
2022-09-09T14:22:14.621Z,0.50
2022-09-09T14:24:41.970Z,0.63
2022-09-09T14:27:09.764Z,0.80
2022-09-09T14:29:36.880Z,1.38
2022-09-09T14:32:03.973Z,1.00
2022-09-09T14:34:33.344Z,0.60
2022-09-09T14:37:01.035Z,0.80
2022-09-09T14:39:28.529Z,0.60
2022-09-09T14:41:56.171Z,0.70
2022-09-09T14:44:23.348Z,0.47
2022-09-09T14:46:54.175Z,0.52
2022-09-09T14:49:21.319Z,0.50
2022-09-09T14:51:49.182Z,0.50
2022-09-09T14:54:17.268Z,0.68
2022-09-09T14:56:44.371Z,0.75
2022-09-09T14:59:11.660Z,0.60
2022-09-09T15:01:39.037Z,0.70
2022-09-09T15:04:06.853Z,0.60
2022-09-09T15:06:36.879Z,0.93
2022-09-09T15:09:04.242Z,0.60
2022-09-09T15:11:38.863Z,0.80
2022-09-09T15:14:07.185Z,0.97
2022-09-09T15:16:34.522Z,0.70
2022-09-09T15:19:02.565Z,0.40
2022-09-09T15:21:32.438Z,0.40
2022-09-09T15:24:00.157Z,0.40
2022-09-09T15:26:28.229Z,0.30
2022-09-09T15:28:55.897Z,0.55
2022-09-09T15:31:25.002Z,0.52
2022-09-09T15:33:53.754Z,0.50
2022-09-09T15:36:25.837Z,0.68
2022-09-09T15:38:53.479Z,0.40
2022-09-09T15:41:22.449Z,0.50
2022-09-09T15:43:51.330Z,1.15
2022-09-09T15:46:18.379Z,0.80
2022-09-09T15:48:47.370Z,0.57
2022-09-09T15:51:37.960Z,0.60
2022-09-09T15:54:03.204Z,0.65
2022-09-09T15:56:33.911Z,0.50
2022-09-09T15:59:02.391Z,0.52
2022-09-09T16:01:30.301Z,0.60
2022-09-09T16:03:58.233Z,0.47
2022-09-09T16:06:26.485Z,0.80
2022-09-09T16:08:54.252Z,0.40
2022-09-09T16:11:27.674Z,1.20
2022-09-09T16:13:55.893Z,0.75
2022-09-09T16:16:25.266Z,0.60
2022-09-09T16:18:55.720Z,0.80
2022-09-09T16:21:25.507Z,1.33
2022-09-09T16:23:54.310Z,0.70
2022-09-09T16:26:21.456Z,1.15
2022-09-09T16:28:48.498Z,0.53
2022-09-09T16:31:18.372Z,0.77
2022-09-09T16:33:45.660Z,0.65
2022-09-09T16:36:20.962Z,1.27
2022-09-09T16:38:48.140Z,0.93
2022-09-09T16:41:15.481Z,0.60
2022-09-09T16:43:42.603Z,0.60
2022-09-09T16:46:20.446Z,0.98
2022-09-09T16:48:48.967Z,0.75
2022-09-09T16:51:21.489Z,0.77
2022-09-09T16:53:48.680Z,0.60
2022-09-09T16:56:17.868Z,0.60
2022-09-09T16:58:57.576Z,0.85
2022-09-09T17:01:25.318Z,0.80
2022-09-09T17:04:00.913Z,0.90
2022-09-09T17:06:30.006Z,0.70
2022-09-09T17:08:58.721Z,0.60
2022-09-09T17:11:26.288Z,0.60
2022-09-09T17:13:54.096Z,0.40
2022-09-09T17:16:23.146Z,0.93
2022-09-09T17:18:51.410Z,0.70
2022-09-09T17:21:20.956Z,0.50
2022-09-09T17:23:48.326Z,0.40
2022-09-09T17:26:17.737Z,0.55
2022-09-09T17:28:46.569Z,0.77
2022-09-09T17:31:16.346Z,0.80
2022-09-09T17:33:47.008Z,0.77
2022-09-09T17:36:25.997Z,1.20
2022-09-09T17:38:53.278Z,0.80
2022-09-09T17:41:25.573Z,0.73
2022-09-09T17:43:53.340Z,0.67
2022-09-09T17:46:26.261Z,0.60
2022-09-09T17:48:57.162Z,0.77
2022-09-09T17:51:28.317Z,0.63
2022-09-09T17:53:56.372Z,0.60
2022-09-09T17:56:24.511Z,0.63
2022-09-09T17:58:52.089Z,0.40
2022-09-09T18:01:24.694Z,0.40
2022-09-09T18:03:52.297Z,0.40
2022-09-09T18:06:23.005Z,0.40
2022-09-09T18:09:00.770Z,0.47
2022-09-09T18:11:31.637Z,0.40
2022-09-09T18:14:01.557Z,0.60
2022-09-09T18:16:30.649Z,0.52
2022-09-09T18:18:58.467Z,0.30
2022-09-09T18:21:27.631Z,0.70
2022-09-09T18:23:54.584Z,0.55
2022-09-09T18:26:24.450Z,0.35
2022-09-09T18:28:53.807Z,0.40
2022-09-09T18:31:25.513Z,0.50
2022-09-09T18:33:56.922Z,0.40
2022-09-09T18:36:32.773Z,0.55
2022-09-09T18:39:00.886Z,0.80
2022-09-09T18:41:39.324Z,0.70
2022-09-09T18:44:10.651Z,0.80
2022-09-09T18:46:38.020Z,0.97
2022-09-09T18:49:05.893Z,0.70
2022-09-09T18:51:35.256Z,0.68
2022-09-09T18:54:05.813Z,0.70
2022-09-09T18:56:32.827Z,0.77
2022-09-09T18:59:01.314Z,0.73
2022-09-09T19:01:28.993Z,0.70
2022-09-09T19:03:59.178Z,0.75
2022-09-09T19:06:28.104Z,0.80
2022-09-09T19:09:02.849Z,1.10
2022-09-09T19:11:30.845Z,0.90
2022-09-09T19:14:02.902Z,0.60
2022-09-09T19:16:31.620Z,0.70
2022-09-09T19:19:00.101Z,0.98
2022-09-09T19:21:29.089Z,0.80
2022-09-09T19:24:01.598Z,0.67
2022-09-09T19:26:32.156Z,0.70
2022-09-09T19:28:59.971Z,1.10
2022-09-09T19:31:30.975Z,0.65
2022-09-09T19:33:58.052Z,0.70
2022-09-09T19:36:27.829Z,0.43
2022-09-09T19:38:55.555Z,0.40
2022-09-09T19:41:25.522Z,0.60
2022-09-09T19:43:56.634Z,0.80
2022-09-09T19:46:23.679Z,0.70
2022-09-09T19:48:50.695Z,0.70
2022-09-09T19:51:20.380Z,0.90
2022-09-09T19:53:50.153Z,1.00
2022-09-09T19:56:18.525Z,0.90
2022-09-09T19:58:47.185Z,0.90
2022-09-09T20:01:16.952Z,1.37
2022-09-09T20:03:45.871Z,1.00
2022-09-09T20:06:15.036Z,1.05
2022-09-09T20:08:44.170Z,0.68
2022-09-09T20:11:11.440Z,1.00
2022-09-09T20:13:40.240Z,1.00
2022-09-09T20:16:12.135Z,0.82
2022-09-09T20:18:42.092Z,1.08
2022-09-09T20:21:19.975Z,0.95
2022-09-09T20:23:48.335Z,1.00
2022-09-09T20:26:17.569Z,0.90
2022-09-09T20:28:45.009Z,0.40
2022-09-09T20:31:14.570Z,0.60
2022-09-09T20:33:43.192Z,0.70
2022-09-09T20:36:16.112Z,0.50
2022-09-09T20:38:48.779Z,0.50
2022-09-09T20:41:18.688Z,0.40
2022-09-09T20:43:49.502Z,0.43
2022-09-09T20:46:20.647Z,0.55
2022-09-09T20:48:48.977Z,0.50
2022-09-09T20:51:20.308Z,0.40
2022-09-09T20:53:47.475Z,0.35
2022-09-09T20:56:16.951Z,0.50
2022-09-09T20:58:43.923Z,0.73
2022-09-09T21:01:15.175Z,0.52
2022-09-09T21:03:42.207Z,0.53
2022-09-09T21:06:09.193Z,0.30
2022-09-09T21:08:36.817Z,0.60
2022-09-09T21:11:04.523Z,0.40
2022-09-09T21:13:32.539Z,0.50
2022-09-09T21:15:59.602Z,0.50
2022-09-09T21:18:29.652Z,0.50
2022-09-09T21:20:56.781Z,0.50
2022-09-09T21:23:24.309Z,0.50
2022-09-09T21:25:51.882Z,0.55
2022-09-09T21:28:19.169Z,0.40
2022-09-09T21:30:52.070Z,0.52
2022-09-09T21:33:20.303Z,0.52
2022-09-09T21:35:47.365Z,0.40
2022-09-09T21:38:19.311Z,0.55
2022-09-09T21:40:46.507Z,0.60
2022-09-09T21:43:14.094Z,0.50
2022-09-09T21:45:42.036Z,0.40
2022-09-09T21:48:14.148Z,0.57
2022-09-09T21:50:43.679Z,0.60
2022-09-09T21:53:11.874Z,0.67
2022-09-09T21:55:41.484Z,0.50
2022-09-09T21:58:11.979Z,0.70
2022-09-09T22:00:46.275Z,0.77
2022-09-09T22:03:14.702Z,0.60
2022-09-09T22:05:43.245Z,0.57
2022-09-09T22:08:11.193Z,0.52
2022-09-09T22:10:39.924Z,0.40
2022-09-09T22:13:07.546Z,0.40
2022-09-09T22:15:36.407Z,0.47
2022-09-09T22:18:04.115Z,0.40
2022-09-09T22:20:33.406Z,0.38
2022-09-09T22:23:01.255Z,0.30
2022-09-09T22:25:32.777Z,0.70
2022-09-09T22:27:59.774Z,0.50
2022-09-09T22:30:26.740Z,0.43
2022-09-09T22:32:53.723Z,1.67
2022-09-09T22:35:20.666Z,1.45
2022-09-09T22:37:47.920Z,1.92
2022-09-09T22:40:15.007Z,1.55
2022-09-09T22:42:42.393Z,1.27
2022-09-09T22:45:10.734Z,1.60
2022-09-09T22:47:40.815Z,0.93
2022-09-09T22:50:08.779Z,0.60
2022-09-09T22:52:35.983Z,0.60
2022-09-09T22:55:02.943Z,0.70
2022-09-09T22:57:31.008Z,0.57
2022-09-09T22:59:59.065Z,0.60
2022-09-09T23:02:27.233Z,0.70
2022-09-09T23:04:54.237Z,0.32
2022-09-09T23:07:23.074Z,0.40
2022-09-09T23:09:50.351Z,0.40
2022-09-09T23:12:20.559Z,0.40
2022-09-09T23:14:48.626Z,0.45
2022-09-09T23:17:16.394Z,0.40
2022-09-09T23:19:43.593Z,0.30
2022-09-09T23:22:11.388Z,0.68
2022-09-09T23:24:38.368Z,0.47
2022-09-09T23:27:05.398Z,0.30
2022-09-09T23:29:32.588Z,0.47
2022-09-09T23:31:59.568Z,0.40
2022-09-09T23:34:26.915Z,0.30
2022-09-09T23:36:53.907Z,0.52
2022-09-09T23:39:23.102Z,0.30
2022-09-09T23:41:50.601Z,0.57
2022-09-09T23:44:17.740Z,0.50
2022-09-09T23:46:44.760Z,0.68
2022-09-09T23:49:11.793Z,0.50
2022-09-09T23:51:38.773Z,0.40
2022-09-09T23:54:06.252Z,0.50
2022-09-09T23:56:41.946Z,0.30
2022-09-09T23:59:09.260Z,0.20
